Time;durP1;ratioP1;P1;durP2;ratioP2;P2;SDS_P1;SDS_P2;PMS_P1;PMS_P2;Temp;Humidity;BMP_temperature;BMP_pressure;BME280_temperature;BME280_humidity;BME280_pressure;Samples;Min_cycle;Max_cycle;Signal;HPM_P1;HPM_P2
2022/04/06 00:00:11;;;;;;;5.00;3.80;;;9.40;99.90;;;;;;4978693;28;20212;-86
2022/04/06 00:02:39;;;;;;;7.03;3.97;;;9.40;99.90;;;;;;4961637;28;20207;-85
2022/04/06 00:05:09;;;;;;;4.30;3.77;;;9.40;99.90;;;;;;4961720;28;20208;-85
2022/04/06 00:07:43;;;;;;;4.43;4.00;;;9.40;99.90;;;;;;4961610;28;20175;-86
2022/04/06 00:10:11;;;;;;;4.63;3.87;;;9.40;99.90;;;;;;4977614;28;20180;-86
2022/04/06 00:12:38;;;;;;;4.57;4.00;;;9.40;99.90;;;;;;4969457;28;20203;-86
2022/04/06 00:15:07;;;;;;;4.00;3.60;;;9.40;99.90;;;;;;4977880;28;20191;-85
2022/04/06 00:17:33;;;;;;;5.10;3.60;;;9.40;99.90;;;;;;4961686;28;20203;-86
2022/04/06 00:19:58;;;;;;;5.00;4.03;;;9.30;99.90;;;;;;4977340;28;20180;-86
2022/04/06 00:22:24;;;;;;;5.37;4.13;;;9.30;99.90;;;;;;4977723;28;20208;-85
2022/04/06 00:24:51;;;;;;;5.43;4.00;;;9.40;99.90;;;;;;4961544;28;20314;-85
2022/04/06 00:27:18;;;;;;;4.87;3.90;;;9.30;99.90;;;;;;4961263;28;20275;-86
2022/04/06 00:29:44;;;;;;;4.30;3.90;;;9.30;99.90;;;;;;4975930;28;20183;-86
2022/04/06 00:32:10;;;;;;;4.27;3.70;;;9.30;99.90;;;;;;4980413;28;20197;-86
2022/04/06 00:37:20;;;;;;;4.20;3.80;;;9.30;99.90;;;;;;4977267;28;20211;-86
2022/04/06 00:39:46;;;;;;;4.77;3.53;;;9.30;99.90;;;;;;4977068;28;20261;-85
2022/04/06 00:42:12;;;;;;;3.77;3.20;;;9.30;99.90;;;;;;4976328;28;20214;-86
2022/04/06 00:44:39;;;;;;;4.80;3.53;;;9.30;99.90;;;;;;4976940;28;20211;-85
2022/04/06 00:47:06;;;;;;;4.40;3.50;;;9.30;99.90;;;;;;4976011;28;20195;-86
2022/04/06 00:49:33;;;;;;;5.80;4.30;;;9.30;99.90;;;;;;4960621;28;20199;-86
2022/04/06 00:52:02;;;;;;;4.23;3.80;;;9.30;99.90;;;;;;4976566;28;20176;-85
2022/04/06 00:54:30;;;;;;;4.20;3.80;;;9.30;99.90;;;;;;4976534;28;20179;-86
2022/04/06 00:56:56;;;;;;;4.07;3.67;;;9.30;99.90;;;;;;4960766;28;20179;-86
2022/04/06 00:59:24;;;;;;;6.23;4.23;;;9.20;99.90;;;;;;4967658;28;20188;-85
2022/04/06 01:01:50;;;;;;;4.50;4.10;;;9.30;99.90;;;;;;4976831;28;20191;-85
2022/04/06 01:04:17;;;;;;;4.93;4.40;;;9.30;99.90;;;;;;4976568;28;20183;-86
2022/04/06 01:06:44;;;;;;;5.53;4.30;;;9.20;99.90;;;;;;4976664;28;20208;-86
2022/04/06 01:09:10;;;;;;;5.07;4.00;;;9.30;99.90;;;;;;4992830;28;20183;-85
2022/04/06 01:11:37;;;;;;;5.93;4.53;;;9.30;99.90;;;;;;4976393;28;20175;-86
2022/04/06 01:14:03;;;;;;;6.17;4.40;;;9.30;99.90;;;;;;4976653;28;20227;-85
2022/04/06 01:16:29;;;;;;;7.13;4.77;;;9.30;99.90;;;;;;4993159;28;20306;-85
2022/04/06 01:18:55;;;;;;;7.30;5.00;;;9.30;99.90;;;;;;4979803;28;20210;-85
2022/04/06 01:21:22;;;;;;;5.27;4.60;;;9.30;99.90;;;;;;4979705;28;20213;-85
2022/04/06 01:23:47;;;;;;;5.30;4.70;;;9.30;99.90;;;;;;4980005;28;20199;-85
2022/04/06 01:26:14;;;;;;;5.23;4.63;;;9.30;99.90;;;;;;4979962;28;20217;-86
2022/04/06 01:28:41;;;;;;;5.00;4.50;;;9.30;99.90;;;;;;4979903;28;20178;-86
2022/04/06 01:31:07;;;;;;;6.27;5.07;;;9.30;99.90;;;;;;4978235;28;20247;-86
2022/04/06 01:33:33;;;;;;;6.57;4.87;;;9.30;99.90;;;;;;4979444;28;20286;-86
2022/04/06 01:36:00;;;;;;;5.50;5.00;;;9.30;99.90;;;;;;4979804;28;20187;-86
2022/04/06 01:38:27;;;;;;;5.80;5.13;;;9.30;99.90;;;;;;4979730;28;20187;-85
2022/04/06 01:40:53;;;;;;;6.27;5.00;;;9.30;99.90;;;;;;4979423;28;20269;-86
2022/04/06 01:43:19;;;;;;;7.53;5.07;;;9.30;99.90;;;;;;4995783;28;20224;-86
2022/04/06 01:45:45;;;;;;;5.97;5.37;;;9.30;99.90;;;;;;5013113;28;20202;-85
2022/04/06 01:48:14;;;;;;;5.43;4.93;;;9.30;99.90;;;;;;4979468;28;20175;-85
2022/04/06 01:53:24;;;;;;;6.00;5.37;;;9.30;99.90;;;;;;4996490;28;20414;-85
2022/04/06 01:55:50;;;;;;;6.23;5.40;;;9.30;99.90;;;;;;4983257;28;20186;-85
2022/04/06 01:58:16;;;;;;;6.27;5.23;;;9.30;99.90;;;;;;4996276;28;20195;-85
2022/04/06 02:00:43;;;;;;;7.60;5.47;;;9.30;99.90;;;;;;4963890;28;20180;-85
2022/04/06 02:03:09;;;;;;;5.87;4.97;;;9.30;99.90;;;;;;4963965;28;20200;-85
2022/04/06 02:05:35;;;;;;;6.50;5.50;;;9.40;99.90;;;;;;4980073;28;20258;-85
2022/04/06 02:08:02;;;;;;;6.10;5.43;;;9.40;99.90;;;;;;4964277;28;20553;-86
2022/04/06 02:10:28;;;;;;;6.07;5.47;;;9.40;99.90;;;;;;4996750;28;20172;-86
2022/04/06 02:12:57;;;;;;;6.13;5.30;;;9.40;99.90;;;;;;4963437;28;20200;-85
2022/04/06 02:15:23;;;;;;;5.70;5.03;;;9.40;99.90;;;;;;4963635;28;20179;-86
2022/04/06 02:17:50;;;;;;;6.20;4.97;;;9.40;99.90;;;;;;4963619;28;20683;-86
2022/04/06 02:20:17;;;;;;;6.37;5.00;;;9.30;99.90;;;;;;4963761;28;20176;-85
2022/04/06 02:22:43;;;;;;;9.57;5.90;;;9.40;99.90;;;;;;4963684;28;20661;-86
2022/04/06 02:25:12;;;;;;;7.13;5.20;;;9.30;99.90;;;;;;4963336;28;20212;-86
2022/04/06 02:27:52;;;;;;;5.67;5.03;;;9.30;99.90;;;;;;4963829;28;20275;-85
2022/04/06 02:30:19;;;;;;;6.57;5.37;;;9.30;99.90;;;;;;4963269;28;20174;-86
2022/04/06 02:32:46;;;;;;;6.23;5.27;;;9.30;99.90;;;;;;4963413;28;20223;-85
2022/04/06 02:35:12;;;;;;;5.97;5.37;;;9.30;99.90;;;;;;4979421;28;20183;-86
2022/04/06 02:37:44;;;;;;;6.60;5.40;;;9.30;99.90;;;;;;4963244;28;20380;-85
2022/04/06 02:40:11;;;;;;;5.80;4.87;;;9.30;99.90;;;;;;4963195;28;20195;-86
2022/04/06 02:42:37;;;;;;;5.97;5.37;;;9.30;99.90;;;;;;4963001;28;20211;-85
2022/04/06 02:45:03;;;;;;;5.80;4.90;;;9.30;99.90;;;;;;4979062;28;20203;-86
2022/04/06 02:47:29;;;;;;;6.03;5.27;;;9.30;99.90;;;;;;4963079;28;20180;-86
2022/04/06 02:49:55;;;;;;;5.00;4.50;;;9.30;99.90;;;;;;4962752;28;20199;-86
2022/04/06 02:52:22;;;;;;;5.30;4.80;;;9.40;99.90;;;;;;4963183;28;20283;-85
2022/04/06 02:55:09;;;;;;;6.23;5.10;;;9.40;99.90;;;;;;4979064;28;20184;-86
2022/04/06 02:57:35;;;;;;;6.00;4.97;;;9.40;99.90;;;;;;4963327;28;20183;-85
2022/04/06 03:00:01;;;;;;;6.30;5.00;;;9.40;99.90;;;;;;4976426;28;20188;-85
2022/04/06 03:02:26;;;;;;;6.27;5.50;;;9.40;99.90;;;;;;4979108;28;20204;-85
2022/04/06 03:04:52;;;;;;;8.27;5.70;;;9.40;99.90;;;;;;4978122;28;20227;-85
2022/04/06 03:07:19;;;;;;;5.73;4.70;;;9.40;99.90;;;;;;4979062;28;20226;-86
2022/04/06 03:09:45;;;;;;;5.87;5.27;;;9.40;99.90;;;;;;4978929;28;20210;-85
2022/04/06 03:12:11;;;;;;;6.10;5.07;;;9.40;99.90;;;;;;4978842;28;20259;-85
2022/04/06 03:14:38;;;;;;;6.27;4.57;;;9.40;99.90;;;;;;4962472;28;20556;-85
2022/04/06 03:17:05;;;;;;;5.53;5.00;;;9.40;99.90;;;;;;4962386;28;20207;-85
2022/04/06 03:20:02;;;;;;;7.23;5.10;;;9.40;99.90;;;;;;4978089;28;20284;-86
2022/04/06 03:22:29;;;;;;;7.73;4.60;;;9.40;99.90;;;;;;4986821;28;20227;-86
2022/04/06 03:24:55;;;;;;;7.00;5.77;;;9.40;99.90;;;;;;4998232;28;20360;-85
2022/04/06 03:27:22;;;;;;;6.00;5.37;;;9.40;99.90;;;;;;4982015;28;20206;-86
2022/04/06 03:29:48;;;;;;;5.53;5.03;;;9.40;99.90;;;;;;4978224;28;20275;-85
2022/04/06 03:32:14;;;;;;;6.83;5.63;;;9.40;99.90;;;;;;4978254;28;20318;-85
2022/04/06 03:34:40;;;;;;;6.73;6.03;;;9.40;99.90;;;;;;4962199;28;20184;-86
2022/04/06 03:37:06;;;;;;;5.80;5.20;;;9.40;99.90;;;;;;4994827;28;20183;-86
2022/04/06 03:39:33;;;;;;;5.23;4.73;;;9.40;99.90;;;;;;4978346;28;20168;-86
2022/04/06 03:41:59;;;;;;;4.80;4.30;;;9.40;99.90;;;;;;4962049;28;20184;-85
2022/04/06 03:44:25;;;;;;;4.80;4.30;;;9.40;99.90;;;;;;4997501;28;20227;-86
2022/04/06 03:46:52;;;;;;;5.33;4.83;;;9.30;99.90;;;;;;4981137;28;20298;-85
2022/04/06 03:49:18;;;;;;;5.50;5.00;;;9.30;99.90;;;;;;4981362;28;20176;-86
2022/04/06 03:51:45;;;;;;;5.97;5.37;;;9.30;99.90;;;;;;4979529;28;20172;-86
2022/04/06 03:54:11;;;;;;;5.23;4.73;;;9.30;99.90;;;;;;4981171;28;20242;-85
2022/04/06 03:56:38;;;;;;;5.40;4.90;;;9.30;99.90;;;;;;4970353;28;20672;-85
2022/04/06 03:59:04;;;;;;;6.27;5.13;;;9.30;99.90;;;;;;4961601;28;20184;-86
2022/04/06 04:01:38;;;;;;;6.00;5.10;;;9.30;99.90;;;;;;4970465;28;20190;-86
2022/04/06 04:04:04;;;;;;;6.33;5.57;;;9.30;99.90;;;;;;4981627;28;20199;-85
2022/04/06 04:06:31;;;;;;;6.90;5.30;;;9.30;99.90;;;;;;4980919;28;20199;-85
2022/04/06 04:08:57;;;;;;;5.83;5.23;;;9.30;99.90;;;;;;4997004;28;20214;-85
2022/04/06 04:11:23;;;;;;;7.70;5.20;;;9.30;99.90;;;;;;4980957;28;20187;-85
2022/04/06 04:13:49;;;;;;;5.93;4.93;;;9.30;99.90;;;;;;4981100;28;20249;-85
2022/04/06 04:16:15;;;;;;;6.03;5.33;;;9.30;99.90;;;;;;4980722;28;20230;-85
2022/04/06 04:18:42;;;;;;;5.90;5.23;;;9.30;99.90;;;;;;4980275;28;20179;-85
2022/04/06 04:21:53;;;;;;;5.73;5.17;;;9.30;99.90;;;;;;4993175;28;20171;-86
2022/04/06 04:23:54;;;;;;;5.50;5.00;;;9.30;99.90;;;;;;4996957;28;20269;-85
2022/04/06 04:26:20;;;;;;;5.20;4.70;;;9.30;99.90;;;;;;4980940;28;20203;-86
2022/04/06 04:28:46;;;;;;;7.23;6.30;;;9.30;99.90;;;;;;4973778;28;20184;-86
2022/04/06 04:31:11;;;;;;;6.30;5.70;;;9.30;99.90;;;;;;4977480;28;20180;-85
2022/04/06 04:33:57;;;;;;;7.83;5.57;;;9.30;99.90;;;;;;4977212;28;20220;-86
2022/04/06 04:36:23;;;;;;;6.43;5.40;;;9.30;99.90;;;;;;4961166;28;20179;-85
2022/04/06 04:39:00;;;;;;;6.87;5.60;;;9.30;99.90;;;;;;4976807;28;20191;-85
2022/04/06 04:41:26;;;;;;;6.90;6.20;;;9.30;99.90;;;;;;4961380;28;20176;-85
2022/04/06 04:43:52;;;;;;;6.77;5.60;;;9.30;99.90;;;;;;4975347;28;20211;-85
2022/04/06 04:46:19;;;;;;;6.87;5.40;;;9.30;99.90;;;;;;4958865;28;20224;-86
2022/04/06 04:48:45;;;;;;;6.77;5.43;;;9.30;99.90;;;;;;4975246;28;20184;-86
2022/04/06 04:51:12;;;;;;;7.40;5.97;;;9.30;99.90;;;;;;4974872;28;20180;-86
2022/04/06 04:53:38;;;;;;;9.27;5.60;;;9.40;99.90;;;;;;4974663;28;20200;-85
2022/04/06 04:56:05;;;;;;;5.90;5.30;;;9.40;99.90;;;;;;4975335;28;20521;-85
2022/04/06 04:58:31;;;;;;;6.57;5.77;;;9.40;99.90;;;;;;4964778;28;20195;-86
2022/04/06 05:00:57;;;;;;;6.43;5.57;;;9.40;99.90;;;;;;4978173;28;20183;-85
2022/04/06 05:03:23;;;;;;;8.07;6.37;;;9.30;99.90;;;;;;4979038;28;20346;-85
2022/04/06 05:05:51;;;;;;;9.83;8.70;;;9.40;99.90;;;;;;4979441;28;20294;-85
2022/04/06 05:08:17;;;;;;;8.87;7.73;;;9.40;99.90;;;;;;4996342;28;20261;-85
2022/04/06 05:10:44;;;;;;;6.67;5.97;;;9.30;99.90;;;;;;4970453;28;20238;-85
2022/04/06 05:13:11;;;;;;;8.00;7.20;;;9.40;99.90;;;;;;4976689;28;20287;-86
2022/04/06 05:15:38;;;;;;;8.00;7.10;;;9.40;99.90;;;;;;4976554;28;20179;-86
2022/04/06 05:18:05;;;;;;;8.50;6.60;;;9.40;99.90;;;;;;5009648;28;20198;-86
2022/04/06 05:20:32;;;;;;;11.13;8.20;;;9.40;99.90;;;;;;4989905;28;20179;-86
2022/04/06 05:22:58;;;;;;;9.17;7.60;;;9.40;99.90;;;;;;5014619;28;20245;-85
2022/04/06 05:25:24;;;;;;;9.30;7.73;;;9.40;99.90;;;;;;4979544;28;20211;-85
2022/04/06 05:27:52;;;;;;;11.43;9.03;;;9.40;99.90;;;;;;4979370;28;20202;-85
2022/04/06 05:30:20;;;;;;;8.73;7.07;;;9.40;99.90;;;;;;4979510;28;20201;-85
2022/04/06 05:32:48;;;;;;;7.20;6.30;;;9.40;99.90;;;;;;4979564;28;20199;-85
2022/04/06 05:35:14;;;;;;;10.10;8.67;;;9.40;99.90;;;;;;4979684;28;20890;-85
2022/04/06 05:37:42;;;;;;;14.73;11.20;;;9.50;99.90;;;;;;4979990;28;20179;-86
2022/04/06 05:40:09;;;;;;;6.70;5.30;;;9.50;99.90;;;;;;4979720;28;20301;-85
2022/04/06 05:42:36;;;;;;;6.47;5.67;;;9.50;99.90;;;;;;4979410;28;20298;-85
2022/04/06 05:45:04;;;;;;;6.40;5.20;;;9.50;99.90;;;;;;4979274;28;20179;-85
2022/04/06 05:47:30;;;;;;;7.90;5.77;;;9.50;99.90;;;;;;4979716;28;20218;-85
2022/04/06 05:49:56;;;;;;;9.03;6.87;;;9.50;99.90;;;;;;4979553;28;20632;-86
2022/04/06 05:52:22;;;;;;;9.20;6.77;;;9.50;99.90;;;;;;4979672;28;20195;-85
2022/04/06 05:54:48;;;;;;;8.30;5.93;;;9.50;99.90;;;;;;4995595;28;20186;-85
2022/04/06 05:57:14;;;;;;;7.60;5.90;;;9.50;99.90;;;;;;4975964;28;20180;-85
2022/04/06 05:59:40;;;;;;;8.20;6.40;;;9.50;99.90;;;;;;5007990;28;20183;-85
2022/04/06 06:02:23;;;;;;;6.97;5.93;;;9.60;99.90;;;;;;4978992;28;20186;-85
2022/04/06 06:04:50;;;;;;;5.87;4.60;;;9.60;99.90;;;;;;4979317;28;20175;-85
2022/04/06 06:07:19;;;;;;;5.10;4.50;;;9.60;99.90;;;;;;4978843;28;20178;-85
2022/04/06 06:09:52;;;;;;;5.30;4.50;;;9.70;99.90;;;;;;4984366;28;20190;-85
2022/04/06 06:12:19;;;;;;;4.57;4.17;;;9.70;99.90;;;;;;4977077;28;20199;-85
2022/04/06 06:14:46;;;;;;;4.50;4.00;;;9.70;99.90;;;;;;4983309;28;20245;-86
2022/04/06 06:17:12;;;;;;;5.80;4.53;;;9.70;99.90;;;;;;4968579;28;20192;-85
2022/04/06 06:19:39;;;;;;;5.83;4.43;;;9.70;99.90;;;;;;4965998;28;20180;-85
2022/04/06 06:22:05;;;;;;;5.37;4.60;;;9.80;99.90;;;;;;4967952;28;20211;-86
2022/04/06 06:24:32;;;;;;;4.70;4.20;;;9.80;99.90;;;;;;4957875;28;20180;-85
2022/04/06 06:27:03;;;;;;;4.80;3.90;;;9.80;99.90;;;;;;4974547;28;20211;-85
2022/04/06 06:29:28;;;;;;;3.87;3.57;;;9.80;99.90;;;;;;4963576;28;20188;-86
2022/04/06 06:31:54;;;;;;;4.23;3.83;;;9.80;99.90;;;;;;4974617;28;20711;-81
2022/04/06 06:34:21;;;;;;;5.70;4.00;;;9.80;99.90;;;;;;4977030;28;20199;-80
2022/04/06 06:36:47;;;;;;;4.33;3.93;;;9.80;99.90;;;;;;4978438;28;20252;-83
2022/04/06 06:39:13;;;;;;;4.53;3.90;;;9.80;99.90;;;;;;4980749;28;20226;-84
2022/04/06 06:41:39;;;;;;;4.70;3.77;;;9.90;99.90;;;;;;4976429;28;20192;-86
2022/04/06 06:44:05;;;;;;;4.27;3.80;;;9.90;99.90;;;;;;4960595;28;20215;-86
2022/04/06 06:46:31;;;;;;;4.17;3.73;;;9.90;99.90;;;;;;4960759;28;20215;-86
2022/04/06 06:49:03;;;;;;;4.10;3.70;;;9.90;99.90;;;;;;4960945;28;20186;-86
2022/04/06 06:51:33;;;;;;;6.50;4.40;;;9.90;99.90;;;;;;4960990;28;20180;-86
2022/04/06 06:54:00;;;;;;;5.13;3.87;;;10.00;99.90;;;;;;4976736;28;20195;-86
2022/04/06 06:56:26;;;;;;;4.50;4.10;;;10.00;99.90;;;;;;4977008;28;20188;-86
2022/04/06 06:58:52;;;;;;;5.37;4.20;;;10.00;99.90;;;;;;4965556;28;20195;-86
2022/04/06 07:01:18;;;;;;;4.57;3.73;;;10.00;99.90;;;;;;4976879;28;20242;-86
2022/04/06 07:03:44;;;;;;;4.73;3.83;;;10.10;99.90;;;;;;4960282;28;20200;-86
2022/04/06 07:06:10;;;;;;;4.47;3.93;;;10.10;99.90;;;;;;4976634;28;20243;-86
2022/04/06 07:08:36;;;;;;;4.43;3.27;;;10.10;99.90;;;;;;4976402;28;20271;-89
2022/04/06 07:11:01;;;;;;;3.70;3.27;;;10.10;99.90;;;;;;4978421;28;20274;-86
2022/04/06 07:13:29;;;;;;;3.67;3.27;;;10.10;99.90;;;;;;4964040;28;20246;-86
2022/04/06 07:15:54;;;;;;;3.50;2.90;;;10.20;99.90;;;;;;4962649;28;20238;-86
2022/04/06 07:18:21;;;;;;;3.90;2.40;;;10.20;99.90;;;;;;4978967;28;20188;-86
2022/04/06 07:20:47;;;;;;;2.63;2.43;;;10.30;99.90;;;;;;4962754;28;20531;-86
2022/04/06 07:23:13;;;;;;;2.33;2.13;;;10.30;99.90;;;;;;4962571;28;20207;-86
2022/04/06 07:25:44;;;;;;;3.37;2.80;;;10.40;99.90;;;;;;4975990;28;20257;-85
2022/04/06 07:28:10;;;;;;;2.43;2.23;;;10.40;99.90;;;;;;4974532;28;20184;-86
2022/04/06 07:30:38;;;;;;;4.20;2.53;;;10.50;99.90;;;;;;4989748;28;20252;-86
2022/04/06 07:33:05;;;;;;;3.13;2.17;;;10.50;99.90;;;;;;4984249;28;20192;-86
2022/04/06 07:35:35;;;;;;;2.37;2.17;;;10.50;99.90;;;;;;4968528;28;20211;-86
2022/04/06 07:38:05;;;;;;;2.10;1.90;;;10.60;99.90;;;;;;4973234;28;20184;-86
2022/04/06 07:40:31;;;;;;;3.67;1.90;;;10.60;99.90;;;;;;4970797;28;20184;-86
2022/04/06 07:42:57;;;;;;;5.43;2.40;;;10.60;99.90;;;;;;4978306;28;20207;-86
2022/04/06 07:45:24;;;;;;;2.73;2.20;;;10.60;99.90;;;;;;4976006;28;20216;-86
2022/04/06 07:47:51;;;;;;;3.97;2.13;;;10.60;99.90;;;;;;4976705;28;20187;-85
2022/04/06 07:50:19;;;;;;;1.97;1.73;;;10.50;99.90;;;;;;4991575;28;20182;-86
2022/04/06 07:53:24;;;;;;;5.17;2.00;;;10.50;99.90;;;;;;4981170;28;20199;-86
2022/04/06 07:55:51;;;;;;;2.53;2.10;;;10.60;99.90;;;;;;4994920;28;20179;-86
2022/04/06 07:58:20;;;;;;;2.30;1.60;;;10.60;99.90;;;;;;4973955;28;20188;-86
2022/04/06 08:00:46;;;;;;;1.97;1.70;;;10.60;99.90;;;;;;4981065;28;20183;-86
2022/04/06 08:03:12;;;;;;;2.17;1.70;;;10.60;99.90;;;;;;4980987;28;20289;-86
2022/04/06 08:05:38;;;;;;;2.27;1.90;;;10.60;99.90;;;;;;4981380;28;20243;-86
2022/04/06 08:08:04;;;;;;;3.40;1.63;;;10.70;99.90;;;;;;4981082;28;20194;-86
2022/04/06 08:10:30;;;;;;;1.53;1.43;;;10.70;99.90;;;;;;4996948;28;20183;-86
2022/04/06 08:13:01;;;;;;;2.50;1.70;;;10.70;99.90;;;;;;4979550;28;20203;-87
2022/04/06 08:15:30;;;;;;;3.63;1.73;;;10.80;99.90;;;;;;4961553;28;20196;-86
2022/04/06 08:17:59;;;;;;;2.50;1.40;;;10.90;99.90;;;;;;4977832;28;20203;-85
2022/04/06 08:20:26;;;;;;;3.63;1.73;;;10.90;99.90;;;;;;4977581;28;20183;-86
2022/04/06 08:22:52;;;;;;;1.80;1.70;;;11.00;99.90;;;;;;4961867;28;20262;-85
2022/04/06 08:25:19;;;;;;;2.13;1.70;;;11.10;99.90;;;;;;4961462;28;20204;-86
2022/04/06 08:27:46;;;;;;;1.47;1.23;;;11.10;99.90;;;;;;4961863;28;20180;-86
2022/04/06 08:30:13;;;;;;;2.23;1.50;;;11.20;99.90;;;;;;5000999;28;20207;-86
2022/04/06 08:32:39;;;;;;;1.90;1.37;;;11.30;99.90;;;;;;4977598;28;20204;-86
2022/04/06 08:35:08;;;;;;;2.90;1.40;;;11.30;99.90;;;;;;4959154;28;20183;-85
2022/04/06 08:37:34;;;;;;;1.53;1.20;;;11.50;99.90;;;;;;4973881;28;20247;-85
2022/04/06 08:39:59;;;;;;;2.37;1.33;;;11.50;99.90;;;;;;4978592;28;20279;-86
2022/04/06 08:42:27;;;;;;;1.87;1.27;;;11.70;99.90;;;;;;4971293;28;20279;-85
2022/04/06 08:44:54;;;;;;;4.67;1.80;;;11.70;99.90;;;;;;4980576;28;20176;-86
2022/04/06 08:47:20;;;;;;;1.43;1.10;;;11.80;99.90;;;;;;4976762;28;20180;-86
2022/04/06 08:49:46;;;;;;;1.13;1.03;;;11.70;99.90;;;;;;4979088;28;20190;-86
2022/04/06 08:52:12;;;;;;;1.20;1.00;;;11.80;99.90;;;;;;4979459;28;20199;-85
2022/04/06 08:54:39;;;;;;;2.27;0.97;;;11.90;99.90;;;;;;4976169;28;20196;-86
2022/04/06 08:57:07;;;;;;;1.20;1.10;;;12.00;99.90;;;;;;4977180;28;20184;-86
2022/04/06 08:59:33;;;;;;;1.13;1.03;;;12.10;99.90;;;;;;4977236;28;20191;-86
2022/04/06 09:01:59;;;;;;;0.80;0.77;;;12.10;99.90;;;;;;4979199;28;20196;-86
2022/04/06 09:04:26;;;;;;;1.50;0.97;;;12.30;99.90;;;;;;4979191;28;20189;-86
2022/04/06 09:06:52;;;;;;;0.83;0.83;;;12.40;99.90;;;;;;4980526;28;20218;-86
2022/04/06 09:09:24;;;;;;;1.67;0.97;;;12.50;99.90;;;;;;4980924;28;20185;-86
2022/04/06 09:11:50;;;;;;;1.10;1.00;;;12.60;99.90;;;;;;4981519;28;20185;-86
2022/04/06 09:14:28;;;;;;;2.13;0.90;;;12.50;99.90;;;;;;4981997;28;20185;-86
2022/04/06 09:17:04;;;;;;;4.50;0.93;;;12.50;99.90;;;;;;4980870;28;20257;-86
2022/04/06 09:19:30;;;;;;;1.40;0.80;;;12.70;99.90;;;;;;4981343;28;20295;-85
2022/04/06 09:21:57;;;;;;;1.43;0.70;;;13.00;99.90;;;;;;4980202;28;20182;-86
2022/04/06 09:24:26;;;;;;;1.43;0.90;;;13.40;99.90;;;;;;4978299;28;20176;-86
2022/04/06 09:27:03;;;;;;;1.80;0.60;;;13.60;99.90;;;;;;4978584;28;20308;-86
2022/04/06 09:29:30;;;;;;;0.70;0.60;;;13.70;99.90;;;;;;4974248;28;20188;-86
2022/04/06 09:32:08;;;;;;;0.93;0.60;;;13.40;99.90;;;;;;4958692;28;20285;-86
2022/04/06 09:34:34;;;;;;;0.80;0.80;;;13.40;99.90;;;;;;4974426;28;20187;-86
2022/04/06 09:37:23;;;;;;;0.70;0.63;;;13.20;99.90;;;;;;4958250;28;20179;-86
2022/04/06 09:39:49;;;;;;;0.50;0.50;;;13.20;99.90;;;;;;4958305;28;20221;-86
2022/04/06 09:42:27;;;;;;;2.73;1.17;;;13.30;99.90;;;;;;4973751;28;20837;-86
2022/04/06 09:47:58;;;;;;;1.00;0.90;;;13.80;99.90;;;;;;4989680;28;20183;-86
2022/04/06 09:50:27;;;;;;;0.97;0.70;;;13.90;99.90;;;;;;4957963;28;20176;-86
2022/04/06 09:52:56;;;;;;;1.00;0.90;;;14.00;99.90;;;;;;4965932;28;20199;-86
2022/04/06 09:55:23;;;;;;;0.80;0.73;;;14.10;99.90;;;;;;4976440;28;20187;-86
2022/04/06 09:57:52;;;;;;;3.03;0.80;;;14.00;99.90;;;;;;4974245;28;20195;-86
2022/04/06 10:00:20;;;;;;;0.83;0.67;;;14.00;99.90;;;;;;4974125;28;20184;-86
2022/04/06 10:03:08;;;;;;;0.70;0.70;;;13.80;99.90;;;;;;4993016;28;20207;-86
2022/04/06 10:05:37;;;;;;;0.63;0.60;;;13.70;99.90;;;;;;4978432;28;20211;-86
2022/04/06 10:08:04;;;;;;;1.00;0.90;;;13.70;99.90;;;;;;4970117;28;20186;-86
2022/04/06 10:10:35;;;;;;;0.87;0.80;;;13.70;99.90;;;;;;4973641;28;20220;-86
2022/04/06 10:13:05;;;;;;;0.60;0.60;;;13.80;99.90;;;;;;4970909;28;20204;-86
2022/04/06 10:15:32;;;;;;;0.70;0.70;;;13.90;99.90;;;;;;4961392;28;20275;-86
2022/04/06 10:17:59;;;;;;;0.90;0.90;;;14.20;99.90;;;;;;4962104;28;20283;-86
2022/04/06 10:20:43;;;;;;;1.50;1.00;;;14.40;99.90;;;;;;4962717;28;20191;-86
2022/04/06 10:23:21;;;;;;;0.77;0.70;;;14.50;99.90;;;;;;4977394;28;20227;-86
2022/04/06 10:25:57;;;;;;;0.70;0.70;;;14.50;99.90;;;;;;4969582;28;20211;-81
2022/04/06 10:28:23;;;;;;;0.73;0.73;;;14.60;99.90;;;;;;4971578;28;20187;-86
2022/04/06 10:31:27;;;;;;;0.73;0.67;;;14.70;99.90;;;;;;4964816;28;20220;-86
2022/04/06 10:34:19;;;;;;;1.30;0.70;;;14.90;99.90;;;;;;4883956;29;20317;-86
2022/04/06 10:37:16;;;;;;;0.97;0.70;;;14.90;99.90;;;;;;4996547;28;20202;-86
2022/04/06 10:39:51;;;;;;;0.90;0.77;;;14.90;99.90;;;;;;4980022;28;20187;-87
2022/04/06 10:42:28;;;;;;;0.60;0.60;;;15.00;99.90;;;;;;4980433;28;20194;-87
2022/04/06 10:44:55;;;;;;;0.40;0.40;;;15.10;99.90;;;;;;4978476;28;20237;-87
2022/04/06 10:47:22;;;;;;;0.47;0.40;;;15.40;99.90;;;;;;4977681;28;20262;-87
2022/04/06 10:50:10;;;;;;;0.57;0.53;;;15.60;99.90;;;;;;4960462;28;20191;-86
2022/04/06 10:52:36;;;;;;;0.50;0.50;;;15.70;99.90;;;;;;4960833;28;20196;-86
2022/04/06 10:55:20;;;;;;;0.53;0.53;;;15.60;99.90;;;;;;4960743;28;20223;-87
2022/04/06 10:57:56;;;;;;;0.70;0.53;;;15.60;99.90;;;;;;4961052;28;20184;-87
2022/04/06 11:00:24;;;;;;;0.77;0.70;;;15.50;99.90;;;;;;4988099;28;20190;-86
2022/04/06 11:02:50;;;;;;;0.70;0.60;;;15.30;99.90;;;;;;4978267;28;21383;-86
2022/04/06 11:05:41;;;;;;;0.73;0.53;;;15.10;99.90;;;;;;4976768;28;20179;-86
2022/04/06 11:11:30;;;;;;;0.50;0.50;;;15.30;99.90;;;;;;4996346;28;20172;-87
2022/04/06 11:13:57;;;;;;;0.50;0.50;;;15.30;99.90;;;;;;4960401;28;20211;-86
2022/04/06 11:16:42;;;;;;;1.53;0.70;;;15.40;99.90;;;;;;4960654;28;20180;-87
2022/04/06 11:19:09;;;;;;;0.67;0.50;;;15.40;99.90;;;;;;4977819;28;20245;-87
2022/04/06 11:21:35;;;;;;;0.40;0.40;;;15.50;99.90;;;;;;4977099;28;20188;-87
2022/04/06 11:24:00;;;;;;;0.53;0.53;;;15.80;99.90;;;;;;4977694;28;20223;-87
2022/04/06 11:26:27;;;;;;;0.97;0.80;;;15.90;99.90;;;;;;5001821;28;20386;-87
2022/04/06 11:28:59;;;;;;;1.57;0.93;;;16.00;99.90;;;;;;4969389;28;20180;-87
2022/04/06 11:31:25;;;;;;;1.60;1.30;;;16.10;99.90;;;;;;4975378;28;20183;-87
2022/04/06 11:33:51;;;;;;;0.90;0.90;;;16.10;99.90;;;;;;4977085;28;20206;-87
2022/04/06 11:36:18;;;;;;;1.83;1.50;;;16.00;99.90;;;;;;4968748;28;20214;-87
2022/04/06 11:38:49;;;;;;;0.60;0.60;;;16.00;99.90;;;;;;4984748;28;20182;-87
2022/04/06 11:41:18;;;;;;;1.60;0.77;;;16.20;99.90;;;;;;4969386;28;20180;-87
2022/04/06 11:43:44;;;;;;;1.60;0.90;;;16.20;99.90;;;;;;4977905;28;20211;-87
2022/04/06 11:46:10;;;;;;;0.50;0.50;;;16.20;99.90;;;;;;4979656;28;20215;-87
2022/04/06 11:48:45;;;;;;;0.73;0.60;;;16.50;99.90;;;;;;4990265;28;20183;-87
2022/04/06 11:51:11;;;;;;;0.98;0.70;;;16.60;99.90;;;;;;4981429;28;20175;-87
2022/04/06 11:53:37;;;;;;;0.65;0.63;;;16.80;99.90;;;;;;4981456;28;20249;-87
2022/04/06 11:56:04;;;;;;;1.23;0.70;;;17.00;99.90;;;;;;4968405;28;20294;-87
2022/04/06 11:58:38;;;;;;;1.42;0.80;;;17.30;99.90;;;;;;4977574;28;20186;-87
2022/04/06 12:01:17;;;;;;;0.60;0.60;;;17.50;99.90;;;;;;4978169;28;20282;-87
2022/04/06 12:03:46;;;;;;;0.40;0.40;;;17.70;99.90;;;;;;4980048;28;20206;-87
2022/04/06 12:06:14;;;;;;;0.50;0.50;;;17.70;99.90;;;;;;4996663;28;20203;-87
2022/04/06 12:08:47;;;;;;;1.65;1.23;;;17.90;99.90;;;;;;4980285;28;20180;-87
2022/04/06 12:11:13;;;;;;;2.38;1.70;;;18.10;99.90;;;;;;4980358;28;20625;-87
2022/04/06 12:13:40;;;;;;;1.15;0.85;;;17.90;99.90;;;;;;4980608;28;20294;-87
2022/04/06 12:16:07;;;;;;;3.47;1.30;;;17.70;99.90;;;;;;4980664;28;20269;-87
2022/04/06 12:18:41;;;;;;;1.23;0.70;;;17.60;99.90;;;;;;4979788;28;20199;-87
2022/04/06 12:21:24;;;;;;;0.60;0.60;;;17.60;99.90;;;;;;4980676;28;20180;-87
2022/04/06 12:23:51;;;;;;;1.23;0.90;;;17.50;99.90;;;;;;4980506;28;20198;-87
2022/04/06 12:26:18;;;;;;;0.70;0.70;;;17.60;99.90;;;;;;4964193;28;20279;-87
2022/04/06 12:28:49;;;;;;;1.60;0.90;;;17.60;99.90;;;;;;4964129;28;20219;-89
2022/04/06 12:31:14;;;;;;;0.45;0.45;;;17.60;99.90;;;;;;4973884;28;20238;-87
2022/04/06 12:33:51;;;;;;;0.80;0.80;;;17.50;99.90;;;;;;4960043;28;20207;-88
2022/04/06 12:36:26;;;;;;;1.27;1.00;;;17.70;99.90;;;;;;4958566;28;20219;-88
2022/04/06 12:39:14;;;;;;;0.80;0.80;;;17.70;99.90;;;;;;4958165;28;20254;-87
2022/04/06 12:41:58;;;;;;;1.05;0.90;;;17.60;99.90;;;;;;4958942;28;20179;-88
2022/04/06 12:44:37;;;;;;;0.85;0.68;;;17.70;99.90;;;;;;4958733;28;20230;-88
2022/04/06 12:47:19;;;;;;;1.70;0.80;;;18.00;99.90;;;;;;4975231;28;20247;-88
2022/04/06 12:49:45;;;;;;;0.60;0.60;;;18.20;99.90;;;;;;4958786;28;20222;-88
2022/04/06 12:52:14;;;;;;;0.88;0.70;;;18.30;99.90;;;;;;4958769;28;20212;-87
2022/04/06 12:54:44;;;;;;;1.23;0.93;;;18.00;99.90;;;;;;4958632;28;20184;-88
2022/04/06 12:57:17;;;;;;;0.70;0.70;;;18.00;99.90;;;;;;4965693;28;20220;-87
2022/04/06 12:59:46;;;;;;;0.95;0.80;;;17.90;99.90;;;;;;4960331;28;20195;-88
2022/04/06 13:02:29;;;;;;;1.10;0.82;;;17.90;99.90;;;;;;4985465;28;20195;-88
2022/04/06 13:05:02;;;;;;;1.65;0.95;;;17.90;99.90;;;;;;4979524;28;20266;-87
2022/04/06 13:07:30;;;;;;;1.67;0.90;;;17.90;99.90;;;;;;4978970;28;20179;-87
2022/04/06 13:09:58;;;;;;;1.45;0.80;;;18.00;99.90;;;;;;4979842;28;20187;-87
2022/04/06 13:12:31;;;;;;;0.70;0.70;;;17.90;99.90;;;;;;4992999;28;20204;-87